Time;durP1;ratioP1;P1;durP2;ratioP2;P2;SDS_P1;SDS_P2;PMS_P1;PMS_P2;Temp;Humidity;BMP_temperature;BMP_pressure;BME280_temperature;BME280_humidity;BME280_pressure;Samples;Min_cycle;Max_cycle;Signal;HPM_P1;HPM_P2
2022/05/29 08:07:43;;;;;;;3.43;1.50;;;13.20;99.90;;;;;;5088478;27;20598;-72
2022/05/29 08:10:11;;;;;;;4.60;1.70;;;13.30;99.90;;;;;;5065738;28;20861;-72
2022/05/29 08:12:39;;;;;;;2.37;1.50;;;13.80;99.90;;;;;;5060918;28;20465;-72
2022/05/29 08:15:06;;;;;;;2.90;1.60;;;14.10;99.90;;;;;;5071401;28;20470;-72
2022/05/29 08:17:33;;;;;;;4.60;1.60;;;14.30;99.90;;;;;;5069516;28;20551;-73
2022/05/29 08:20:00;;;;;;;4.77;1.77;;;14.80;99.90;;;;;;5069385;28;20472;-73
2022/05/29 08:22:26;;;;;;;4.93;1.53;;;15.70;99.90;;;;;;5061335;28;20470;-73
2022/05/29 08:30:46;;;;;;;3.00;2.20;;;15.90;99.90;;;;;;5069814;28;20809;-71
2022/05/29 08:33:16;;;;;;;2.70;1.63;;;16.20;99.90;;;;;;5069780;28;20458;-72
2022/05/29 08:35:44;;;;;;;1.93;1.30;;;17.30;99.90;;;;;;5068269;28;20458;-72
2022/05/29 08:38:12;;;;;;;10.77;2.57;;;17.60;99.90;;;;;;5063743;28;20483;-72
2022/05/29 08:40:45;;;;;;;5.30;2.20;;;18.00;99.90;;;;;;5065508;28;20516;-72
2022/05/29 08:43:25;;;;;;;3.90;2.07;;;17.40;99.90;;;;;;5055304;28;20465;-71
2022/05/29 08:45:53;;;;;;;4.30;1.77;;;16.90;99.90;;;;;;5069772;28;21274;-70
2022/05/29 08:48:23;;;;;;;1.93;1.50;;;16.20;99.90;;;;;;5079134;28;20482;-73
2022/05/29 08:51:05;;;;;;;2.33;1.47;;;15.70;99.90;;;;;;5077085;28;20458;-73
2022/05/29 08:53:39;;;;;;;5.97;1.63;;;15.60;99.90;;;;;;5073390;28;20984;-73
2022/05/29 08:56:14;;;;;;;4.37;1.80;;;15.60;99.90;;;;;;5069855;28;20464;-71
2022/05/29 08:58:56;;;;;;;3.47;1.60;;;16.50;99.90;;;;;;5054440;22;20617;-72
2022/05/29 09:01:34;;;;;;;3.10;1.80;;;17.10;99.90;;;;;;5039972;28;20471;-72
2022/05/29 09:04:05;;;;;;;1.97;1.70;;;17.20;99.90;;;;;;5036183;28;20471;-72
2022/05/29 09:06:36;;;;;;;4.30;1.70;;;16.90;99.90;;;;;;5040186;28;20886;-72
2022/05/29 09:09:09;;;;;;;2.47;1.50;;;16.80;99.90;;;;;;5015973;28;20476;-71
2022/05/29 09:11:42;;;;;;;1.50;1.33;;;16.50;99.90;;;;;;5016205;28;20478;-71
2022/05/29 09:14:18;;;;;;;1.57;1.20;;;15.30;99.90;;;;;;5008816;28;20549;-71
2022/05/29 09:16:47;;;;;;;1.87;1.00;;;14.40;99.90;;;;;;5012098;28;20513;-71
2022/05/29 09:19:31;;;;;;;2.47;1.63;;;13.90;99.90;;;;;;5000132;28;20615;-71
2022/05/29 09:22:04;;;;;;;3.73;1.40;;;13.70;99.90;;;;;;4998511;28;20817;-72
2022/05/29 09:24:50;;;;;;;6.30;1.93;;;13.70;99.90;;;;;;5001187;28;20474;-72
2022/05/29 09:27:19;;;;;;;4.27;1.70;;;13.80;99.90;;;;;;5001153;28;21153;-71
2022/05/29 09:29:46;;;;;;;6.87;2.10;;;13.90;99.90;;;;;;5003113;28;20491;-71
2022/05/29 09:32:18;;;;;;;2.17;1.60;;;14.10;99.90;;;;;;4998796;28;20881;-70
2022/05/29 09:34:56;;;;;;;5.50;2.67;;;14.40;99.90;;;;;;4996971;28;20971;-71
2022/05/29 09:37:30;;;;;;;2.30;1.73;;;14.50;99.90;;;;;;4998959;28;20773;-71
2022/05/29 09:39:59;;;;;;;6.00;2.00;;;14.80;99.90;;;;;;5001569;28;20465;-71
2022/05/29 09:42:34;;;;;;;4.17;2.00;;;15.30;99.90;;;;;;5004720;28;20517;-72
2022/05/29 09:45:09;;;;;;;2.20;1.70;;;15.80;99.90;;;;;;4999057;28;20973;-72
2022/05/29 09:50:22;;;;;;;1.73;1.40;;;17.60;99.90;;;;;;5000702;28;20508;-71
2022/05/29 09:52:50;;;;;;;1.73;1.40;;;18.40;99.90;;;;;;4996916;28;20454;-72
2022/05/29 09:55:25;;;;;;;2.30;1.27;;;18.70;99.90;;;;;;5003631;28;20459;-72
2022/05/29 09:57:57;;;;;;;3.93;1.27;;;18.50;99.90;;;;;;5003601;28;20497;-73
2022/05/29 10:00:31;;;;;;;2.67;1.40;;;17.30;99.90;;;;;;4997083;28;20849;-71
2022/05/29 10:02:59;;;;;;;4.33;1.80;;;16.60;99.90;;;;;;5002638;28;20452;-72
2022/05/29 10:05:28;;;;;;;4.17;1.57;;;16.40;99.90;;;;;;4998209;28;20450;-73
2022/05/29 10:07:56;;;;;;;5.47;2.80;;;16.40;99.90;;;;;;4997013;28;21180;-71
2022/05/29 10:10:32;;;;;;;2.13;1.93;;;16.60;99.90;;;;;;5000784;28;20512;-72
2022/05/29 10:13:02;;;;;;;3.10;1.57;;;16.40;99.90;;;;;;4988348;28;20493;-71
2022/05/29 10:15:40;;;;;;;3.83;1.90;;;16.40;99.90;;;;;;5000757;28;20480;-72
2022/05/29 10:18:13;;;;;;;3.43;1.77;;;16.30;99.90;;;;;;4988102;28;20479;-72
2022/05/29 10:20:43;;;;;;;3.00;1.47;;;16.80;99.90;;;;;;5000486;28;20524;-71
2022/05/29 10:23:12;;;;;;;4.00;1.53;;;18.10;99.90;;;;;;5005999;28;20493;-72
2022/05/29 10:25:41;;;;;;;3.23;1.70;;;19.90;99.90;;;;;;4994702;28;21659;-72
2022/05/29 10:28:15;;;;;;;3.07;1.80;;;20.90;99.90;;;;;;5003445;28;20488;-72
2022/05/29 10:30:45;;;;;;;3.33;2.57;;;21.00;99.90;;;;;;4992152;28;20651;-72
2022/05/29 10:33:19;;;;;;;2.30;1.53;;;21.50;99.90;;;;;;5002659;28;20510;-71
2022/05/29 10:35:47;;;;;;;2.10;1.23;;;22.20;99.90;;;;;;4998116;28;20483;-71
2022/05/29 10:38:26;;;;;;;2.47;1.50;;;22.50;99.90;;;;;;4986963;28;20553;-72
2022/05/29 10:40:55;;;;;;;3.40;1.30;;;23.30;99.90;;;;;;4996819;28;20876;-72
2022/05/29 10:43:39;;;;;;;5.57;1.93;;;23.00;99.90;;;;;;5004159;28;20459;-72
2022/05/29 10:46:12;;;;;;;2.33;1.43;;;21.60;99.90;;;;;;4997533;28;20522;-73
2022/05/29 10:49:10;;;;;;;2.93;1.67;;;21.20;99.90;;;;;;4995304;28;20506;-73
2022/05/29 10:51:56;;;;;;;2.90;1.77;;;20.70;99.90;;;;;;4994891;28;20477;-73
2022/05/29 10:54:33;;;;;;;3.93;1.60;;;18.90;99.90;;;;;;4991916;28;20515;-72
2022/05/29 10:57:12;;;;;;;2.23;1.30;;;17.70;99.90;;;;;;4986847;28;20457;-73
2022/05/29 10:59:58;;;;;;;1.73;1.57;;;16.90;99.90;;;;;;4983544;28;20469;-73
2022/05/29 11:05:33;;;;;;;2.10;1.50;;;16.10;99.90;;;;;;4990925;28;20461;-73
2022/05/29 11:08:11;;;;;;;4.00;1.90;;;15.90;99.90;;;;;;4994126;28;20495;-73
2022/05/29 11:10:56;;;;;;;1.90;1.50;;;15.40;99.90;;;;;;4993760;28;20464;-71
2022/05/29 11:13:44;;;;;;;2.63;1.50;;;15.20;99.90;;;;;;4991129;28;20848;-72
2022/05/29 11:16:21;;;;;;;4.07;2.20;;;15.30;99.90;;;;;;4998156;28;20464;-72
2022/05/29 11:19:22;;;;;;;5.67;3.13;;;15.40;99.90;;;;;;4990563;28;20487;-71
2022/05/29 11:22:00;;;;;;;3.20;1.90;;;15.70;99.90;;;;;;4988470;28;20578;-72
2022/05/29 11:24:59;;;;;;;3.03;1.67;;;15.80;99.90;;;;;;4976642;28;20468;-71
2022/05/29 11:27:53;;;;;;;2.37;1.83;;;15.70;99.90;;;;;;4967077;28;20485;-71
2022/05/29 11:30:26;;;;;;;3.17;1.40;;;15.40;99.90;;;;;;4981215;28;20472;-70
2022/05/29 11:33:13;;;;;;;1.43;1.30;;;15.30;99.90;;;;;;5000932;28;20481;-72
2022/05/29 11:35:57;;;;;;;5.43;1.60;;;15.10;99.90;;;;;;4997055;28;20464;-71
2022/05/29 11:38:47;;;;;;;1.87;1.50;;;15.00;99.90;;;;;;4995497;28;20486;-72
2022/05/29 11:41:20;;;;;;;1.40;1.00;;;14.80;99.90;;;;;;5001060;28;20472;-72
2022/05/29 11:43:53;;;;;;;2.97;1.23;;;14.90;99.90;;;;;;4998012;28;20465;-73
2022/05/29 11:52:05;;;;;;;4.57;1.30;;;15.70;99.90;;;;;;4992859;28;20480;-72
2022/05/29 11:54:36;;;;;;;2.83;1.63;;;15.90;99.90;;;;;;4994448;28;21068;-72
2022/05/29 11:57:08;;;;;;;2.40;1.07;;;16.10;99.90;;;;;;4990816;28;20454;-71
2022/05/29 11:59:47;;;;;;;1.87;1.57;;;16.20;99.90;;;;;;5001487;28;20467;-72
2022/05/29 12:02:32;;;;;;;2.40;1.03;;;16.20;99.90;;;;;;4996231;28;21406;-72
2022/05/29 12:05:21;;;;;;;2.53;1.20;;;16.10;99.90;;;;;;4998786;28;20461;-71
2022/05/29 12:07:55;;;;;;;2.70;1.30;;;16.20;99.90;;;;;;4998094;28;21013;-70
2022/05/29 12:10:26;;;;;;;1.30;1.10;;;16.10;99.90;;;;;;5000855;28;20456;-71
2022/05/29 12:12:58;;;;;;;5.00;1.20;;;16.00;99.90;;;;;;4998350;28;20450;-71
2022/05/29 12:15:26;;;;;;;6.50;1.30;;;15.90;99.90;;;;;;4984901;28;20460;-71
2022/05/29 12:17:57;;;;;;;1.30;1.13;;;15.80;99.90;;;;;;4995780;28;21206;-72
2022/05/29 12:20:41;;;;;;;7.33;1.40;;;15.80;99.90;;;;;;4986326;28;20464;-71
2022/05/29 12:23:19;;;;;;;6.03;2.30;;;16.10;99.90;;;;;;4993975;28;20551;-71
2022/05/29 12:25:53;;;;;;;1.20;1.07;;;16.80;99.90;;;;;;4988513;28;20515;-72
2022/05/29 12:28:29;;;;;;;1.60;1.30;;;16.60;99.90;;;;;;4974219;28;21244;-71
2022/05/29 12:30:56;;;;;;;2.77;1.50;;;16.90;99.90;;;;;;4971208;28;20480;-72
2022/05/29 12:33:25;;;;;;;4.20;1.20;;;17.20;99.90;;;;;;4979241;28;20483;-72
2022/05/29 12:36:06;;;;;;;2.57;1.80;;;17.50;99.90;;;;;;4972204;28;20982;-71
2022/05/29 12:38:51;;;;;;;3.23;1.93;;;18.30;99.90;;;;;;4984902;28;20542;-70
2022/05/29 12:41:32;;;;;;;1.50;1.30;;;19.10;99.90;;;;;;4975842;28;20465;-70
2022/05/29 12:44:37;;;;;;;2.93;1.37;;;20.00;99.90;;;;;;4984083;28;20457;-70
2022/05/29 12:47:38;;;;;;;4.80;1.60;;;20.10;99.90;;;;;;4994281;28;20489;-71
2022/05/29 12:50:20;;;;;;;2.43;1.20;;;20.10;99.90;;;;;;4991977;28;20958;-71
2022/05/29 12:53:11;;;;;;;1.83;1.10;;;19.20;99.90;;;;;;4992537;28;20883;-71
2022/05/29 12:56:14;;;;;;;1.77;1.00;;;20.10;99.90;;;;;;5005583;28;20569;-71
2022/05/29 12:59:25;;;;;;;2.63;1.30;;;20.50;99.90;;;;;;4986063;28;20495;-73
2022/05/29 13:02:11;;;;;;;1.83;1.33;;;20.70;99.90;;;;;;4964978;28;20516;-71
2022/05/29 13:05:12;;;;;;;2.37;1.20;;;20.70;99.90;;;;;;4996810;28;20469;-71
2022/05/29 13:08:04;;;;;;;1.67;1.20;;;20.20;99.90;;;;;;4990295;28;20547;-70
2022/05/29 13:10:34;;;;;;;3.43;1.50;;;20.70;99.90;;;;;;4997786;28;20739;-70
2022/05/29 13:13:07;;;;;;;2.47;1.70;;;19.70;99.90;;;;;;4989579;28;20553;-71
2022/05/29 13:15:36;;;;;;;2.60;1.70;;;19.20;99.90;;;;;;4994661;28;20528;-72
2022/05/29 13:18:10;;;;;;;5.17;1.80;;;18.50;99.90;;;;;;4994956;28;20532;-70
2022/05/29 13:21:19;;;;;;;3.50;2.07;;;17.90;99.90;;;;;;4998964;28;20489;-71
2022/05/29 13:23:49;;;;;;;1.37;1.20;;;17.70;99.90;;;;;;4962264;28;20465;-71
2022/05/29 13:26:24;;;;;;;5.77;1.90;;;18.10;99.90;;;;;;4992401;28;20455;-71
2022/05/29 13:29:01;;;;;;;1.90;1.43;;;18.70;99.90;;;;;;4997435;28;20620;-72
2022/05/29 13:31:32;;;;;;;2.13;1.47;;;19.30;99.90;;;;;;4994564;28;20523;-72
2022/05/29 13:34:26;;;;;;;6.37;1.93;;;19.20;99.90;;;;;;4998051;28;20493;-71
2022/05/29 13:37:03;;;;;;;1.40;1.17;;;19.10;99.90;;;;;;4994863;28;20466;-70
2022/05/29 13:39:52;;;;;;;2.27;1.03;;;19.60;99.90;;;;;;4996536;28;20472;-71
2022/05/29 13:42:29;;;;;;;2.00;1.10;;;20.30;99.90;;;;;;4992967;28;20455;-72
2022/05/29 13:44:55;;;;;;;3.13;1.70;;;20.70;99.90;;;;;;5000240;28;20474;-72
2022/05/29 13:47:45;;;;;;;2.43;1.00;;;21.00;99.90;;;;;;5002798;28;20486;-73
2022/05/29 13:50:31;;;;;;;1.20;1.03;;;20.40;99.90;;;;;;4990498;28;20522;-71
2022/05/29 13:53:01;;;;;;;1.30;1.00;;;19.80;99.90;;;;;;4994277;28;20514;-71
2022/05/29 13:55:32;;;;;;;1.30;1.03;;;19.40;99.90;;;;;;4997595;28;20492;-71
2022/05/29 14:04:03;;;;;;;2.40;1.23;;;18.80;99.90;;;;;;4991746;28;20552;-71
2022/05/29 14:06:32;;;;;;;1.40;1.10;;;19.20;99.90;;;;;;4986201;28;20487;-71
2022/05/29 14:09:03;;;;;;;2.63;0.90;;;19.20;99.90;;;;;;4990864;28;20485;-71
2022/05/29 14:11:48;;;;;;;16.43;1.37;;;18.90;99.90;;;;;;4993977;28;21258;-69
2022/05/29 14:14:44;;;;;;;1.40;1.10;;;17.70;99.90;;;;;;4985923;28;20468;-70
2022/05/29 14:17:16;;;;;;;1.53;1.00;;;17.10;99.90;;;;;;4988799;28;20469;-70
2022/05/29 14:20:02;;;;;;;4.40;1.30;;;17.40;99.90;;;;;;4991162;28;20993;-70
2022/05/29 14:22:44;;;;;;;2.20;1.37;;;17.70;99.90;;;;;;4988430;28;20559;-70
2022/05/29 14:25:23;;;;;;;2.13;1.37;;;17.60;99.90;;;;;;4992525;28;20461;-71
2022/05/29 14:28:04;;;;;;;2.53;1.27;;;17.60;99.90;;;;;;4984207;28;20489;-71
2022/05/29 14:30:54;;;;;;;1.30;0.90;;;17.80;99.90;;;;;;4984346;28;21482;-70
2022/05/29 14:33:37;;;;;;;3.73;1.73;;;18.00;99.90;;;;;;4986545;28;21271;-70
2022/05/29 14:36:20;;;;;;;2.33;1.20;;;18.20;99.90;;;;;;4994885;28;20489;-71
2022/05/29 14:39:03;;;;;;;1.53;1.10;;;17.60;99.90;;;;;;4984226;28;20447;-71
2022/05/29 14:41:33;;;;;;;1.30;0.90;;;17.60;99.90;;;;;;4989719;28;20983;-71
2022/05/29 14:44:08;;;;;;;1.50;1.33;;;17.60;99.90;;;;;;4996425;28;20462;-71
2022/05/29 14:46:46;;;;;;;2.70;1.20;;;17.70;99.90;;;;;;4988659;28;20486;-70
2022/05/29 14:49:17;;;;;;;1.73;1.40;;;17.40;99.90;;;;;;4985765;28;20882;-71
2022/05/29 14:51:50;;;;;;;1.97;1.30;;;17.30;99.90;;;;;;4984618;28;20905;-72
2022/05/29 14:54:23;;;;;;;1.20;0.90;;;17.30;99.90;;;;;;4987478;28;20470;-72
2022/05/29 14:57:00;;;;;;;1.93;1.07;;;16.80;99.90;;;;;;4982240;28;20460;-72
2022/05/29 14:59:33;;;;;;;1.30;0.97;;;16.80;99.90;;;;;;5012896;23;20653;-70
2022/05/29 15:02:06;;;;;;;4.23;0.90;;;16.50;99.90;;;;;;5008202;28;20469;-73
2022/05/29 15:04:40;;;;;;;1.50;1.20;;;16.50;99.90;;;;;;5003932;28;20594;-73
2022/05/29 15:12:43;;;;;;;2.67;2.27;;;16.80;99.90;;;;;;5007021;28;21158;-71
2022/05/29 15:15:23;;;;;;;3.20;2.07;;;16.90;99.90;;;;;;5006483;28;20470;-71
2022/05/29 15:17:51;;;;;;;2.43;1.30;;;17.00;99.90;;;;;;5012831;28;20449;-70
2022/05/29 15:26:02;;;;;;;3.20;1.43;;;17.40;99.90;;;;;;4997770;28;20704;-74
2022/05/29 15:28:31;;;;;;;1.50;1.30;;;17.70;99.90;;;;;;5011764;28;20499;-71
2022/05/29 15:31:00;;;;;;;3.10;1.20;;;17.70;99.90;;;;;;5004299;28;21025;-72
2022/05/29 15:33:37;;;;;;;1.83;1.27;;;17.60;99.90;;;;;;5006823;28;20501;-71
2022/05/29 15:36:14;;;;;;;2.57;1.20;;;17.50;99.90;;;;;;5013441;28;21548;-72
2022/05/29 15:38:48;;;;;;;1.87;1.20;;;17.30;99.90;;;;;;5014935;28;20473;-72
2022/05/29 15:41:30;;;;;;;3.10;1.30;;;16.90;99.90;;;;;;5007351;28;20642;-74
2022/05/29 15:44:07;;;;;;;2.43;1.27;;;16.90;99.90;;;;;;5010708;28;20468;-73
2022/05/29 15:46:54;;;;;;;1.30;1.00;;;16.80;99.90;;;;;;5011774;28;20463;-73
2022/05/29 15:49:41;;;;;;;1.90;1.27;;;16.80;99.90;;;;;;5010742;28;20476;-72
2022/05/29 15:52:23;;;;;;;2.03;1.40;;;16.60;99.90;;;;;;5012477;28;20463;-72
2022/05/29 15:55:04;;;;;;;1.40;1.10;;;16.60;99.90;;;;;;5008261;28;20658;-72
2022/05/29 15:57:43;;;;;;;2.10;1.17;;;17.10;99.90;;;;;;5003007;28;20483;-72
2022/05/29 16:00:13;;;;;;;1.63;0.93;;;17.40;99.90;;;;;;5009730;28;20456;-72
2022/05/29 16:02:59;;;;;;;1.23;1.10;;;17.70;99.90;;;;;;5007715;28;20492;-71
2022/05/29 16:05:30;;;;;;;6.93;2.87;;;17.50;99.90;;;;;;5002651;28;20787;-71
2022/05/29 16:08:18;;;;;;;4.13;1.50;;;17.60;99.90;;;;;;5003705;28;20598;-71
2022/05/29 16:10:47;;;;;;;2.40;1.10;;;17.40;99.90;;;;;;5008873;28;20496;-72
2022/05/29 16:13:43;;;;;;;2.33;1.13;;;17.10;99.90;;;;;;5003424;28;20772;-72
2022/05/29 16:16:16;;;;;;;2.60;1.20;;;17.00;99.90;;;;;;5008692;28;20461;-71
2022/05/29 16:19:06;;;;;;;7.37;1.30;;;16.80;99.90;;;;;;5001125;28;20532;-73
2022/05/29 16:21:48;;;;;;;2.77;2.57;;;16.80;99.90;;;;;;5006218;28;20472;-71
2022/05/29 16:24:25;;;;;;;1.67;1.30;;;16.60;99.90;;;;;;5009973;28;20816;-70
2022/05/29 16:26:57;;;;;;;2.73;1.37;;;16.70;99.90;;;;;;5006916;28;20470;-73
2022/05/29 16:29:31;;;;;;;1.20;1.00;;;16.50;99.90;;;;;;5009340;28;20493;-71
2022/05/29 16:32:04;;;;;;;2.00;1.23;;;16.30;99.90;;;;;;5003275;28;20451;-72
2022/05/29 16:34:37;;;;;;;2.13;1.20;;;15.90;99.90;;;;;;5013121;28;20507;-71
2022/05/29 16:48:45;;;;;;;9.40;3.40;;;16.40;99.90;;;;;;5007289;28;20561;-73
2022/05/29 16:51:15;;;;;;;3.63;1.47;;;16.20;99.90;;;;;;5013782;28;20467;-73
2022/05/29 16:53:47;;;;;;;1.97;1.40;;;16.00;99.90;;;;;;5015803;28;20431;-72
2022/05/29 16:56:20;;;;;;;2.30;1.47;;;15.90;99.90;;;;;;5012645;28;20582;-73
2022/05/29 16:58:54;;;;;;;1.83;1.63;;;16.00;99.90;;;;;;5010222;28;20545;-71
2022/05/29 17:01:25;;;;;;;2.73;1.10;;;16.00;99.90;;;;;;4998876;28;20472;-72
2022/05/29 17:04:07;;;;;;;1.93;1.00;;;15.80;99.90;;;;;;5010166;28;20495;-72
2022/05/29 17:06:39;;;;;;;1.70;1.10;;;15.70;99.90;;;;;;5007274;28;20464;-72
2022/05/29 17:09:19;;;;;;;1.37;1.10;;;15.90;99.90;;;;;;5012878;28;21465;-74
2022/05/29 17:11:46;;;;;;;3.27;1.20;;;16.00;99.90;;;;;;5011840;28;20473;-71
2022/05/29 17:14:13;;;;;;;1.60;1.27;;;15.90;99.90;;;;;;5010647;28;20534;-72
2022/05/29 17:16:40;;;;;;;2.13;1.30;;;16.00;99.90;;;;;;5014626;28;20949;-72
2022/05/29 17:19:08;;;;;;;1.60;1.13;;;16.30;99.90;;;;;;5010338;28;21068;-72
2022/05/29 17:21:40;;;;;;;2.33;1.13;;;16.40;99.90;;;;;;5012986;28;20539;-71
2022/05/29 17:24:15;;;;;;;1.60;1.20;;;16.10;99.90;;;;;;5018383;28;20478;-73
2022/05/29 17:26:54;;;;;;;1.83;1.30;;;15.80;99.90;;;;;;5006191;28;20464;-72
2022/05/29 17:29:30;;;;;;;2.90;1.50;;;15.90;99.90;;;;;;5010065;28;20487;-71
2022/05/29 17:32:04;;;;;;;6.10;1.50;;;15.90;99.90;;;;;;5011488;28;20463;-72
2022/05/29 17:34:36;;;;;;;2.73;2.03;;;15.70;99.90;;;;;;5015927;28;20486;-71
2022/05/29 17:37:11;;;;;;;2.70;1.13;;;15.50;99.90;;;;;;5013557;28;20809;-72
2022/05/29 17:39:43;;;;;;;1.80;1.50;;;15.70;99.90;;;;;;5014145;28;20587;-72
2022/05/29 17:42:10;;;;;;;8.40;1.40;;;15.70;99.90;;;;;;5010644;28;20979;-73
2022/05/29 17:44:43;;;;;;;2.43;1.30;;;15.50;99.90;;;;;;4999298;28;20461;-73
2022/05/29 17:47:24;;;;;;;1.20;1.10;;;15.30;99.90;;;;;;4995478;28;20482;-74
2022/05/29 17:50:07;;;;;;;3.97;1.43;;;15.30;99.90;;;;;;4980652;28;20483;-75
2022/05/29 17:52:49;;;;;;;2.37;1.60;;;15.30;99.90;;;;;;4998039;28;20985;-72
2022/05/29 17:55:19;;;;;;;1.73;1.50;;;15.20;99.90;;;;;;4996029;28;20467;-74
2022/05/29 17:57:50;;;;;;;4.00;1.50;;;15.30;99.90;;;;;;5002054;28;20736;-71
2022/05/29 18:00:18;;;;;;;1.60;1.10;;;15.30;99.90;;;;;;4989329;28;20455;-74
2022/05/29 18:02:46;;;;;;;2.10;1.43;;;15.20;99.90;;;;;;5003341;28;20461;-71
2022/05/29 18:05:15;;;;;;;1.53;1.30;;;15.20;99.90;;;;;;5005127;28;20475;-73
2022/05/29 18:07:42;;;;;;;2.70;1.57;;;15.00;99.90;;;;;;5011279;28;20970;-70
2022/05/29 18:10:10;;;;;;;1.50;1.30;;;15.10;99.90;;;;;;5002795;28;20512;-72
2022/05/29 18:12:37;;;;;;;2.70;1.20;;;14.90;99.90;;;;;;5000739;28;20474;-72
2022/05/29 18:15:05;;;;;;;1.37;1.13;;;14.90;99.90;;;;;;5007865;28;20462;-72
2022/05/29 18:17:32;;;;;;;1.73;1.10;;;15.00;99.90;;;;;;5010299;28;20562;-73
2022/05/29 18:20:00;;;;;;;4.33;1.47;;;15.10;99.90;;;;;;5005207;28;21141;-72
2022/05/29 18:22:28;;;;;;;1.40;1.10;;;15.00;99.90;;;;;;5007075;28;20548;-72
2022/05/29 18:24:55;;;;;;;7.60;1.83;;;15.00;99.90;;;;;;4994900;28;20468;-71
2022/05/29 18:27:22;;;;;;;1.40;1.30;;;15.00;99.90;;;;;;5006627;28;20552;-72
2022/05/29 18:29:48;;;;;;;1.40;1.30;;;15.00;99.90;;;;;;5003987;28;20555;-71
2022/05/29 18:32:15;;;;;;;2.37;1.50;;;15.00;99.90;;;;;;5006638;28;20543;-74
2022/05/29 18:34:42;;;;;;;1.83;1.30;;;14.80;99.90;;;;;;5007502;28;20474;-71
2022/05/29 18:37:09;;;;;;;1.73;1.60;;;14.60;99.90;;;;;;5008034;28;20468;-72
2022/05/29 18:39:37;;;;;;;1.60;1.40;;;14.60;99.90;;;;;;5005575;28;20574;-74
2022/05/29 18:42:04;;;;;;;2.07;1.40;;;14.60;99.90;;;;;;5001029;28;20464;-73
2022/05/29 18:44:30;;;;;;;3.10;1.30;;;14.70;99.90;;;;;;5011192;28;20463;-71
2022/05/29 18:46:58;;;;;;;2.43;1.17;;;14.60;99.90;;;;;;5005576;28;20462;-73
2022/05/29 18:49:28;;;;;;;5.90;1.63;;;14.70;99.90;;;;;;5004907;28;20488;-73
2022/05/29 18:51:56;;;;;;;2.20;1.80;;;14.80;99.90;;;;;;4999956;28;20460;-74
2022/05/29 18:54:22;;;;;;;1.77;1.20;;;14.70;99.90;;;;;;4988938;28;20499;-72
2022/05/29 18:56:51;;;;;;;1.20;1.00;;;14.70;99.90;;;;;;5000535;28;20471;-72
2022/05/29 18:59:18;;;;;;;6.17;1.67;;;14.60;99.90;;;;;;4997425;28;20482;-73
2022/05/29 19:01:44;;;;;;;3.67;2.30;;;14.60;99.90;;;;;;4988420;28;20516;-72
2022/05/29 19:04:11;;;;;;;1.30;0.90;;;14.50;99.90;;;;;;4993520;28;22618;-71
2022/05/29 19:06:38;;;;;;;3.50;1.27;;;14.30;99.90;;;;;;5008996;28;21128;-73
2022/05/29 19:09:05;;;;;;;1.60;1.27;;;14.20;99.90;;;;;;5005968;28;20527;-72
2022/05/29 19:11:31;;;;;;;1.67;1.10;;;14.10;99.90;;;;;;5012794;28;20487;-71
2022/05/29 19:13:59;;;;;;;1.70;1.30;;;14.20;99.90;;;;;;5007064;28;20463;-74
2022/05/29 19:16:28;;;;;;;2.47;1.20;;;14.30;99.90;;;;;;5004331;28;20471;-74
2022/05/29 19:18:57;;;;;;;1.60;1.30;;;14.40;99.90;;;;;;5005408;28;21172;-72
2022/05/29 19:21:25;;;;;;;3.77;2.07;;;14.40;99.90;;;;;;5013286;28;20513;-71
2022/05/29 19:23:52;;;;;;;1.50;1.23;;;14.40;99.90;;;;;;5012201;28;23111;-72
2022/05/29 19:26:21;;;;;;;2.10;1.40;;;14.30;99.90;;;;;;5014123;28;20977;-73
2022/05/29 19:28:52;;;;;;;5.40;2.47;;;14.40;99.90;;;;;;5018700;28;20985;-72
2022/05/29 19:31:21;;;;;;;3.43;1.30;;;14.30;99.90;;;;;;5009449;28;20460;-72
2022/05/29 19:33:48;;;;;;;1.70;1.43;;;14.10;99.90;;;;;;5009246;28;20515;-71
2022/05/29 19:36:17;;;;;;;1.83;1.03;;;13.90;99.90;;;;;;5005876;28;20521;-72
2022/05/29 19:38:45;;;;;;;2.33;1.43;;;13.80;99.90;;;;;;5006284;28;20515;-72
2022/05/29 19:41:13;;;;;;;2.57;1.57;;;13.80;99.90;;;;;;5007684;28;20455;-73
2022/05/29 19:43:39;;;;;;;4.70;1.20;;;13.60;99.90;;;;;;5008921;28;20471;-71
2022/05/29 19:46:10;;;;;;;4.13;1.93;;;13.40;99.90;;;;;;5007145;28;20547;-72
2022/05/29 19:48:38;;;;;;;4.60;1.60;;;13.50;99.90;;;;;;5013881;28;20922;-73
2022/05/29 19:51:05;;;;;;;1.50;1.40;;;13.60;99.90;;;;;;5003374;28;20870;-72
2022/05/29 19:53:32;;;;;;;2.70;1.20;;;13.70;99.90;;;;;;5006148;28;20471;-73
2022/05/29 19:56:02;;;;;;;3.30;1.27;;;13.70;99.90;;;;;;5015852;28;20478;-72
2022/05/29 19:58:29;;;;;;;3.50;1.90;;;13.80;99.90;;;;;;5010742;28;20500;-73
2022/05/29 20:01:03;;;;;;;10.00;1.77;;;13.70;99.90;;;;;;5009683;28;20462;-72
2022/05/29 20:03:29;;;;;;;1.30;1.13;;;13.70;99.90;;;;;;5003313;28;20856;-73
2022/05/29 20:06:05;;;;;;;4.50;1.60;;;13.70;99.90;;;;;;5017009;28;20460;-71
2022/05/29 20:08:33;;;;;;;2.13;1.77;;;13.70;99.90;;;;;;5018342;28;20628;-71
2022/05/29 20:11:05;;;;;;;1.60;1.43;;;13.50;99.90;;;;;;5013940;28;20489;-70
2022/05/29 20:13:32;;;;;;;2.00;1.57;;;13.40;99.90;;;;;;5017317;28;20650;-70
2022/05/29 20:15:59;;;;;;;2.10;1.17;;;13.30;99.90;;;;;;5016729;28;20464;-71
2022/05/29 20:18:25;;;;;;;1.40;1.10;;;13.30;99.90;;;;;;5015639;28;20520;-72
2022/05/29 20:27:38;;;;;;;1.57;1.40;;;13.30;99.90;;;;;;5012771;28;20441;-71
2022/05/29 20:30:06;;;;;;;4.60;1.30;;;13.30;99.90;;;;;;5016440;28;20529;-70
2022/05/29 20:32:33;;;;;;;6.30;1.53;;;13.30;99.90;;;;;;5018642;28;20491;-71
2022/05/29 20:35:00;;;;;;;2.07;1.43;;;13.40;99.90;;;;;;5011645;28;20476;-71
2022/05/29 20:37:26;;;;;;;1.90;1.60;;;13.30;99.90;;;;;;5019855;28;20517;-70
2022/05/29 20:39:54;;;;;;;2.30;1.10;;;13.20;99.90;;;;;;5011856;28;20476;-70
2022/05/29 20:42:20;;;;;;;4.10;1.53;;;13.20;99.90;;;;;;5018061;28;21254;-71
2022/05/29 20:44:50;;;;;;;6.00;1.83;;;13.20;99.90;;;;;;5020189;28;20464;-70
2022/05/29 20:47:24;;;;;;;1.60;1.00;;;13.20;99.90;;;;;;5019999;28;21212;-71
2022/05/29 20:49:51;;;;;;;1.83;1.20;;;13.30;99.90;;;;;;5017752;28;20478;-72
2022/05/29 20:52:20;;;;;;;5.83;1.50;;;13.20;99.90;;;;;;5012638;28;20495;-69
2022/05/29 20:54:47;;;;;;;3.87;1.17;;;13.20;99.90;;;;;;5015097;28;20463;-72
2022/05/29 20:57:15;;;;;;;1.87;1.23;;;13.10;99.90;;;;;;5013935;28;20612;-72
2022/05/29 20:59:42;;;;;;;8.00;1.37;;;13.10;99.90;;;;;;5029982;23;20865;-69
2022/05/29 21:02:15;;;;;;;1.60;1.03;;;12.90;99.90;;;;;;5000585;28;20991;-68
2022/05/29 21:04:42;;;;;;;1.40;1.00;;;12.70;99.90;;;;;;5001846;28;20474;-67
2022/05/29 21:07:09;;;;;;;2.53;1.30;;;12.80;99.90;;;;;;5002197;28;20998;-68
2022/05/29 21:09:36;;;;;;;3.00;1.10;;;12.80;99.90;;;;;;5008110;28;20920;-68
2022/05/29 21:12:03;;;;;;;3.10;1.60;;;12.80;99.90;;;;;;4994344;28;20570;-68
2022/05/29 21:14:30;;;;;;;1.97;1.47;;;12.80;99.90;;;;;;5008893;28;20550;-68
2022/05/29 21:16:56;;;;;;;5.47;1.80;;;12.90;99.90;;;;;;5008099;28;20545;-69
2022/05/29 21:19:25;;;;;;;2.17;1.40;;;12.90;99.90;;;;;;5005490;28;20506;-70
2022/05/29 21:21:52;;;;;;;6.37;2.10;;;12.80;99.90;;;;;;5002153;28;20475;-70
2022/05/29 21:24:18;;;;;;;1.53;1.30;;;12.90;99.90;;;;;;5002470;28;21012;-71
2022/05/29 21:26:48;;;;;;;4.10;1.30;;;13.00;99.90;;;;;;5011552;28;20456;-70
2022/05/29 21:29:14;;;;;;;3.03;1.37;;;13.10;99.90;;;;;;5002303;28;21056;-69
2022/05/29 21:31:42;;;;;;;4.20;2.47;;;13.20;99.90;;;;;;5005049;28;20483;-69
2022/05/29 21:34:11;;;;;;;6.37;1.50;;;12.90;99.90;;;;;;5004231;28;20435;-69
2022/05/29 21:36:41;;;;;;;1.40;1.03;;;13.10;99.90;;;;;;5002116;28;20800;-68
2022/05/29 21:39:11;;;;;;;4.70;1.70;;;13.10;99.90;;;;;;5005499;28;20484;-69
2022/05/29 21:41:42;;;;;;;3.30;1.47;;;13.00;99.90;;;;;;5011904;28;20445;-69
2022/05/29 21:44:09;;;;;;;2.93;1.20;;;12.80;99.90;;;;;;5010515;28;20949;-68
2022/05/29 21:46:37;;;;;;;1.20;1.10;;;12.90;99.90;;;;;;5002431;28;21016;-70
2022/05/29 21:49:04;;;;;;;2.43;1.50;;;13.00;99.90;;;;;;5006153;28;20486;-67
2022/05/29 21:51:31;;;;;;;2.03;1.83;;;13.00;99.90;;;;;;5003116;28;20554;-69
2022/05/29 21:54:00;;;;;;;2.83;1.30;;;12.90;99.90;;;;;;5010184;28;20904;-69
2022/05/29 21:56:27;;;;;;;5.37;1.43;;;12.80;99.90;;;;;;5008382;28;20460;-70
2022/05/29 21:58:55;;;;;;;2.27;1.43;;;12.80;99.90;;;;;;5003273;28;21005;-69
2022/05/29 22:01:22;;;;;;;3.93;1.40;;;12.80;99.90;;;;;;5008078;28;20487;-68
2022/05/29 22:03:50;;;;;;;5.47;1.40;;;12.80;99.90;;;;;;5003320;28;20459;-69
2022/05/29 22:06:19;;;;;;;4.00;2.10;;;12.80;99.90;;;;;;4999127;28;20481;-69
2022/05/29 22:08:46;;;;;;;3.20;1.60;;;12.80;99.90;;;;;;5006469;28;20488;-70
2022/05/29 22:11:15;;;;;;;2.47;1.50;;;12.80;99.90;;;;;;5007231;28;20480;-67
2022/05/29 22:13:42;;;;;;;6.27;2.13;;;12.80;99.90;;;;;;4997597;28;20469;-69
2022/05/29 22:16:13;;;;;;;2.23;1.50;;;12.60;99.90;;;;;;5001839;28;20969;-69
2022/05/29 22:18:40;;;;;;;5.00;1.57;;;12.60;99.90;;;;;;5002606;28;20511;-69